KRN weather

Kiruna Airport
Kiruna, Norrbottena län, Sweden

Public forecast

Using degrees Celsius for public forecast. Weather courtesy of forecast.io.

METAR (pilot weather report)

Retrieved 2019/05/22 14:20 UTC (28 minutes ago):

ESNQ 221420Z AUTO 07014KT 9999 BKN039/// 07/M03 Q1018

TAF (pilot weather forecast)

Forecast is more than 12 hours old.

Retrieved 2018/12/09 21:15 UTC (5 months ago):

TAF TAF ESNQ 092030Z 0921/1014 01005KT 9999 OVC010 TEMPO 0921/0924 1200 SN VV004